• Join FlightAware (Why Join?)
  • Login
  • US Flag 
05:48AM EDT


 

Airport Tracker/Info


-or-


 

Live Flight TrackerFlight Track Log ✈ ASQ5740 ✈ 28-Sep-2013 ✈ KGSP - KIAD

Flight Track Log - Related Links

Times and Time Zones

All times are in EDT time to prevent confusion due to time zone crossing. See the ASQ5740 flight status page for this flight to view local times or setup timezone preferences in your user account.

Time Position Orientation Groundspeed Altitude Reporting Facility
EDT Latitude Longitude Course Direction KTS MPH feet Rate Location/Type
02:55PM 34.9744 -82.0717 71° East 224 258 6,200  Level Atlanta Center
02:56PM 35.1996 -81.8860 North  Level Estimated
02:56PM 35.0086 -81.9922 62° Northeast 241 277 8,400  Level Atlanta Center
02:57PM 35.2754 -81.8024 North  Level Estimated
02:57PM 35.0514 -81.9303 50° Northeast 264 304 10,200  Level Atlanta Center
02:58PM 35.3512 -81.7186 80° East  Level Estimated
02:58PM 35.1369 -81.9358 357° North 244 281 11,900  Level Atlanta Center
02:59PM 35.4269 -81.6347 71° East  Level Estimated
02:59PM 35.2247 -81.9386 359° North 287 330 14,100  Level Atlanta Center
03:00PM 35.3078 -81.9186 11° North 293 337 15,600 1,440 Climbing Atlanta Center
03:01PM 35.3497 -81.8233 62° Northeast 273 314 17,000 1,200 Climbing Atlanta Center
03:02PM 35.3897 -81.7206 64° Northeast 321 369 18,000 1,140 Climbing Atlanta Center
03:03PM 35.4353 -81.6044 64° Northeast 334 384 19,300 1,200 Climbing Atlanta Center
03:04PM 35.4769 -81.4961 65° Northeast 343 395 20,500 1,200 Climbing Atlanta Center
03:05PM 35.5164 -81.3903 65° Northeast 343 395 21,700 1,080 Climbing Atlanta Center
03:06PM 35.5461 -81.3078 66° East 343 395 22,700 1,200 Climbing Atlanta Center
03:07PM 35.5972 -81.1706 65° Northeast 343 395 24,100 1,140 Climbing Atlanta Center
03:08PM 35.6344 -81.0747 64° Northeast 343 395 25,000 720 Climbing Atlanta Center
03:09PM 35.6778 -80.9658 64° Northeast 338 389 25,600 600 Climbing Atlanta Center
03:10PM 35.7225 -80.8439 66° East 349 402 26,200 600 Climbing Atlanta Center
03:11PM 35.7656 -80.7322 65° Northeast 349 402 26,800 600 Climbing Atlanta Center
03:12PM 35.8081 -80.6153 66° East 354 407 27,400 600 Climbing Atlanta Center
03:13PM 35.8531 -80.5006 64° Northeast 366 421 28,000 540 Climbing Atlanta Center
03:15PM 35.9233 -80.3039 66° East 362 417 29,000 600 Climbing Washington Center
03:16PM 35.9656 -80.1883 66° East 375 432 29,700 540 Climbing Washington Center
03:17PM 36.0031 -80.0828 66° East 375 432 30,200 540 Climbing Washington Center
03:18PM 36.0508 -79.9697 62° Northeast 367 422 30,800 360 Climbing Washington Center
03:19PM 36.1089 -79.8703 54° Northeast 362 417 31,000 60 Climbing Washington Center
03:20PM 36.1711 -79.7578 56° Northeast 371 427 31,000  Level Washington Center
03:21PM 36.2378 -79.6428 54° Northeast 383 441 31,000  Level Washington Center
03:22PM 36.2933 -79.5425 55° Northeast 383 441 31,000 -360 Level Washington Center
03:23PM 36.3553 -79.4347 54° Northeast 383 441 30,300 -960 Descending Washington Center
03:24PM 36.4150 -79.3217 57° Northeast 383 441 29,200 -1,200 Descending Washington Center
03:25PM 36.4814 -79.2033 55° Northeast 383 441 28,000 -1,020 Descending Washington Center
03:26PM 36.5383 -79.1131 52° Northeast 378 435 27,200 -900 Descending Washington Center
03:27PM 36.6139 -79.0206 44° Northeast 378 435 26,200 -1,080 Descending Washington Center
03:28PM 36.6967 -78.9050 48° Northeast 385 443 25,100 -600 Descending Washington Center
03:29PM 36.7658 -78.8172 45° Northeast 398 458 25,000 -60 Descending Washington Center
03:30PM 36.8433 -78.7194 45° Northeast 392 451 25,000  Level Washington Center
03:31PM 36.9211 -78.6186 46° Northeast 392 451 25,000  Level Washington Center
03:32PM 37.0072 -78.5075 46° Northeast 392 451 25,000 -180 Level Washington Center
03:34PM 37.1680 -78.4229 55° Northeast  Level Estimated
03:35PM 37.2431 -78.2400 55° Northeast 397 457 24,400  Level Washington Center
03:36PM 37.3344 -78.1619 34° Northeast 397 457 23,400 -1,020 Descending Washington Center
03:37PM 37.4236 -78.0867 34° Northeast 389 448 22,400 -1,020 Descending Washington Center
03:38PM 37.5147 -78.0136 32° Northeast 389 448 21,400 -1,140 Descending Washington Center
03:39PM 37.6061 -77.9353 34° Northeast 389 448 20,200 -1,560 Descending Washington Center
03:40PM 37.6950 -77.8594 34° Northeast 384 442 18,400 -1,680 Descending Washington Center
03:41PM 37.7797 -77.7883 34° Northeast 373 429 16,900 -1,680 Descending Washington Center
03:42PM 37.8625 -77.7169 34° Northeast 373 429 15,100 -1,680 Descending Washington Center
03:43PM 37.9450 -77.6456 34° Northeast 367 422 13,600 -1,560 Descending Washington Center
03:44PM 38.0339 -77.5742 32° Northeast 355 409 12,000 -1,440 Descending Washington Center
03:45PM 38.1100 -77.5103 33° Northeast 340 391 10,800 -1,020 Descending Washington Center
03:46PM 38.1756 -77.4539 34° Northeast 311 358 10,000 -840 Descending Washington Center
03:47PM 38.2428 -77.4106 27° Northeast 282 325 9,200 -900 Descending Washington Center
03:48PM 38.3144 -77.3728 22° Northeast 270 311 8,200 -1,080 Descending Washington Center
03:49PM 38.3897 -77.3586 North 265 305 7,100 -1,320 Descending Washington Center
03:50PM 38.4619 -77.3947 339° North 265 305 5,700 -1,440 Descending Washington Center
03:51PM 38.5303 -77.4308 338° Northwest 260 299 4,300 -900 Descending Washington Center
03:52PM 38.5989 -77.4458 350° North 260 299 4,000 -240 Descending Washington Center
03:52PM 38.6500 -77.4333 11° North 245 282 4,000  Level Potomac TRACON
03:53PM 38.7000 -77.4333 360° North 229 264 4,000 -300 Level Potomac TRACON
03:54PM 38.7667 -77.4333 360° North 237 273 3,400 -900 Descending Potomac TRACON
03:55PM 38.8333 -77.4333 360° North 205 236 2,200 -1,080 Descending Potomac TRACON
03:56PM 38.8833 -77.4333 360° North 153 176 1,300 -900 Descending Potomac TRACON